Time;durP1;ratioP1;P1;durP2;ratioP2;P2;SDS_P1;SDS_P2;PMS_P1;PMS_P2;Temp;Humidity;BMP_temperature;BMP_pressure;BME280_temperature;BME280_humidity;BME280_pressure;Samples;Min_cycle;Max_cycle;Signal;HPM_P1;HPM_P2
2022/12/10 00:00:35;;;;;;;51.75;7.90;;;17.60;95.60;;;;;;5111338;28;20324;-82
2022/12/10 00:03:01;;;;;;;46.33;9.05;;;17.60;95.50;;;;;;5109856;28;20031;-84
2022/12/10 00:05:27;;;;;;;57.13;9.15;;;17.60;95.50;;;;;;5094712;28;20048;-84
2022/12/10 00:07:53;;;;;;;55.15;8.80;;;17.60;95.50;;;;;;5094164;28;20115;-82
2022/12/10 00:10:18;;;;;;;52.75;9.48;;;17.60;95.50;;;;;;5094252;28;20031;-82
2022/12/10 00:12:44;;;;;;;50.58;9.40;;;17.60;95.40;;;;;;5095904;28;20036;-83
2022/12/10 00:15:10;;;;;;;41.42;8.20;;;17.60;95.40;;;;;;5095287;28;20472;-82
2022/12/10 00:17:36;;;;;;;50.78;7.97;;;17.60;95.40;;;;;;5094967;28;20461;-81
2022/12/10 00:20:02;;;;;;;48.65;7.68;;;17.60;95.40;;;;;;5094501;28;20020;-84
2022/12/10 00:22:27;;;;;;;42.17;6.93;;;17.60;95.30;;;;;;5095502;28;20024;-83
2022/12/10 00:24:53;;;;;;;51.35;9.18;;;17.60;95.40;;;;;;5094372;28;20024;-82
2022/12/10 00:27:19;;;;;;;57.88;8.30;;;17.60;95.30;;;;;;5094555;28;20034;-81
2022/12/10 00:29:44;;;;;;;46.15;7.28;;;17.60;95.20;;;;;;5095300;28;20107;-82
2022/12/10 00:32:10;;;;;;;48.78;8.70;;;17.60;95.20;;;;;;5095390;28;20059;-83
2022/12/10 00:34:36;;;;;;;46.10;7.53;;;17.60;95.20;;;;;;5095601;28;20027;-82
2022/12/10 00:37:02;;;;;;;35.72;7.55;;;17.60;95.20;;;;;;5094415;28;20032;-82
2022/12/10 00:39:28;;;;;;;43.80;8.05;;;17.60;95.20;;;;;;5095633;28;20372;-82
2022/12/10 00:41:54;;;;;;;44.92;7.70;;;17.60;95.20;;;;;;5095110;28;20114;-82
2022/12/10 00:44:20;;;;;;;59.35;9.25;;;17.60;95.20;;;;;;5094132;28;20066;-82
2022/12/10 00:46:45;;;;;;;45.13;8.13;;;17.60;95.10;;;;;;5093850;28;20508;-82
2022/12/10 00:49:12;;;;;;;43.83;8.15;;;17.60;95.10;;;;;;5094778;28;20019;-82
2022/12/10 00:51:38;;;;;;;49.58;8.52;;;17.60;95.20;;;;;;5094659;28;20028;-80
2022/12/10 00:54:04;;;;;;;55.30;8.00;;;17.60;95.20;;;;;;5096148;28;20594;-83
2022/12/10 00:56:32;;;;;;;53.88;8.98;;;17.60;95.20;;;;;;5103168;28;20047;-83
2022/12/10 00:58:58;;;;;;;76.90;10.05;;;17.70;95.30;;;;;;5102423;28;20042;-83
2022/12/10 01:01:33;;;;;;;72.93;10.05;;;17.70;95.20;;;;;;5095318;28;20021;-83
2022/12/10 01:04:01;;;;;;;82.80;12.32;;;17.70;95.20;;;;;;5096575;28;20025;-83
2022/12/10 01:06:33;;;;;;;75.43;11.25;;;17.70;95.20;;;;;;5095064;28;20499;-82
2022/12/10 01:09:02;;;;;;;76.47;13.48;;;17.70;95.20;;;;;;5094788;28;20024;-82
2022/12/10 01:11:37;;;;;;;88.40;12.50;;;17.80;95.30;;;;;;5095070;28;20031;-82
2022/12/10 01:14:04;;;;;;;78.80;11.38;;;17.70;95.10;;;;;;5094335;28;20028;-80
2022/12/10 01:16:30;;;;;;;91.93;11.10;;;17.80;95.20;;;;;;5093349;28;20388;-84
2022/12/10 01:18:57;;;;;;;78.13;10.43;;;17.80;95.20;;;;;;5094523;28;20028;-80
2022/12/10 01:21:24;;;;;;;79.93;12.65;;;17.80;95.20;;;;;;5094546;28;20028;-81
2022/12/10 01:23:51;;;;;;;76.75;9.73;;;17.80;95.20;;;;;;5094443;28;20035;-81
2022/12/10 01:26:22;;;;;;;75.80;11.73;;;17.80;95.20;;;;;;5094361;28;20032;-82
2022/12/10 01:28:49;;;;;;;85.72;14.13;;;17.80;95.10;;;;;;5092653;28;20020;-82
2022/12/10 01:31:19;;;;;;;69.50;10.82;;;17.80;95.20;;;;;;5092904;28;20214;-81
2022/12/10 01:33:45;;;;;;;54.33;10.10;;;17.80;95.20;;;;;;5093050;28;20442;-83
2022/12/10 01:36:17;;;;;;;72.97;10.68;;;17.80;95.20;;;;;;5094171;28;20044;-83
2022/12/10 01:38:43;;;;;;;62.53;10.70;;;17.80;95.20;;;;;;5092756;28;20028;-81
2022/12/10 01:41:15;;;;;;;81.70;11.05;;;17.80;95.10;;;;;;5092342;28;20031;-82
2022/12/10 01:44:07;;;;;;;71.13;10.07;;;17.80;95.10;;;;;;5095350;28;20047;-81
2022/12/10 01:46:39;;;;;;;76.07;10.68;;;17.80;95.10;;;;;;5063688;28;20499;-83
2022/12/10 01:49:08;;;;;;;87.40;11.32;;;17.80;95.00;;;;;;5093622;28;20099;-83
2022/12/10 01:51:36;;;;;;;73.25;10.68;;;17.80;94.90;;;;;;5093594;28;20020;-82
2022/12/10 01:54:11;;;;;;;71.65;12.02;;;17.80;94.80;;;;;;5093301;28;20080;-82
2022/12/10 01:56:40;;;;;;;73.03;11.77;;;17.80;94.90;;;;;;5092302;28;20021;-82
2022/12/10 01:59:06;;;;;;;70.15;11.45;;;17.80;94.70;;;;;;5093409;28;20028;-82
2022/12/10 02:01:40;;;;;;;72.10;11.30;;;17.80;94.70;;;;;;5092381;28;20110;-82
2022/12/10 02:04:09;;;;;;;;;;;17.80;94.60;;;;;;5092251;28;20032;-81
2022/12/10 02:06:58;;;;;;;79.72;11.35;;;17.80;94.50;;;;;;5093459;28;19904;-81
2022/12/10 02:09:46;;;;;;;68.75;11.38;;;17.80;94.50;;;;;;5093690;28;20111;-81
2022/12/10 02:12:34;;;;;;;89.28;12.10;;;17.80;94.40;;;;;;5093291;28;20031;-82
2022/12/10 02:15:12;;;;;;;69.57;11.73;;;17.90;94.50;;;;;;5091613;28;20511;-82
2022/12/10 02:17:43;;;;;;;73.65;12.80;;;17.80;94.40;;;;;;5093350;28;20015;-82
2022/12/10 02:20:24;;;;;;;67.07;9.45;;;17.80;94.60;;;;;;5095194;28;20028;-82
2022/12/10 02:22:52;;;;;;;82.93;12.32;;;17.80;94.50;;;;;;5097597;28;20032;-81
2022/12/10 02:25:24;;;;;;;68.03;9.35;;;17.80;94.50;;;;;;5098007;28;20468;-81
2022/12/10 02:28:32;;;;;;;76.18;11.70;;;17.80;94.60;;;;;;5097268;28;20059;-82
2022/12/10 02:30:59;;;;;;;80.85;11.20;;;17.80;94.50;;;;;;5069209;28;20040;-82
2022/12/10 02:33:29;;;;;;;66.80;10.15;;;17.80;94.70;;;;;;5092806;28;20036;-82
2022/12/10 02:35:58;;;;;;;95.82;12.27;;;17.80;95.00;;;;;;5093091;28;20115;-82
2022/12/10 02:38:28;;;;;;;86.57;11.85;;;17.80;94.90;;;;;;5091509;28;20139;-83
2022/12/10 02:41:10;;;;;;;99.38;12.50;;;17.80;94.90;;;;;;5092654;28;20503;-82
2022/12/10 02:43:37;;;;;;;85.43;12.55;;;17.80;94.80;;;;;;5095028;28;20055;-79
2022/12/10 02:46:04;;;;;;;78.15;11.20;;;17.70;94.90;;;;;;5094434;28;20016;-81
2022/12/10 02:48:32;;;;;;;97.18;13.02;;;17.70;94.90;;;;;;5092502;28;20424;-81
2022/12/10 02:50:58;;;;;;;92.90;14.13;;;17.80;94.90;;;;;;5092968;28;20023;-81
2022/12/10 02:53:23;;;;;;;101.70;12.75;;;17.70;94.90;;;;;;5093323;28;20048;-81
2022/12/10 02:56:06;;;;;;;95.05;13.70;;;17.80;94.90;;;;;;5093305;28;20388;-81
2022/12/10 02:58:54;;;;;;;91.88;11.55;;;17.80;94.70;;;;;;5093545;28;20062;-82
2022/12/10 03:01:23;;;;;;;71.65;11.80;;;17.70;94.80;;;;;;5091738;28;20031;-82
2022/12/10 03:04:38;;;;;;;91.65;12.40;;;17.80;94.90;;;;;;5092880;28;20111;-82
2022/12/10 03:07:13;;;;;;;90.88;12.60;;;17.80;94.70;;;;;;5079140;28;20484;-82
2022/12/10 03:09:50;;;;;;;93.30;11.88;;;17.80;95.00;;;;;;5092912;28;20067;-81
2022/12/10 03:12:28;;;;;;;81.43;11.43;;;17.80;95.00;;;;;;5092855;28;20108;-80
2022/12/10 03:15:00;;;;;;;87.53;11.80;;;17.80;94.90;;;;;;5092926;28;20020;-81
2022/12/10 03:17:28;;;;;;;86.30;13.05;;;17.80;95.00;;;;;;5091040;28;20020;-81
2022/12/10 03:19:57;;;;;;;94.25;13.05;;;17.80;95.10;;;;;;5092468;28;20089;-81
2022/12/10 03:22:23;;;;;;;78.40;10.70;;;17.80;95.20;;;;;;5091256;28;20028;-83
2022/12/10 03:24:49;;;;;;;83.80;12.40;;;17.80;95.30;;;;;;5092243;28;20081;-82
2022/12/10 03:27:18;;;;;;;77.35;10.57;;;17.80;95.50;;;;;;5092487;28;20505;-81
2022/12/10 03:29:49;;;;;;;75.95;12.15;;;17.70;95.60;;;;;;5090937;28;20099;-81
2022/12/10 03:32:17;;;;;;;64.78;12.15;;;17.70;95.80;;;;;;5092127;28;20377;-82
2022/12/10 03:34:48;;;;;;;84.07;11.85;;;17.70;95.90;;;;;;5091128;28;20020;-83
2022/12/10 03:37:14;;;;;;;91.88;11.90;;;17.60;96.00;;;;;;5092468;28;20529;-82
2022/12/10 03:39:41;;;;;;;73.22;11.95;;;17.60;96.20;;;;;;5094007;28;20059;-82
2022/12/10 03:42:07;;;;;;;83.50;11.70;;;17.50;96.30;;;;;;5094764;28;20038;-81
2022/12/10 03:44:36;;;;;;;84.85;11.88;;;17.50;96.50;;;;;;5094882;28;20115;-81
2022/12/10 03:47:04;;;;;;;68.60;11.38;;;17.50;96.90;;;;;;5096369;28;20017;-82
2022/12/10 03:49:30;;;;;;;68.00;10.13;;;17.40;96.70;;;;;;5095825;28;20020;-81
2022/12/10 03:51:56;;;;;;;68.75;11.55;;;17.40;96.80;;;;;;5094166;28;20107;-82
2022/12/10 03:54:22;;;;;;;67.53;10.25;;;17.40;96.80;;;;;;5095860;28;20398;-82
2022/12/10 03:56:48;;;;;;;67.40;10.95;;;17.40;97.00;;;;;;5095489;28;20036;-83
2022/12/10 03:59:14;;;;;;;74.00;12.55;;;17.40;97.00;;;;;;5094256;28;20051;-81
2022/12/10 04:01:41;;;;;;;72.85;11.35;;;17.30;97.00;;;;;;5095963;28;20030;-82
2022/12/10 04:04:07;;;;;;;76.63;12.88;;;17.30;97.00;;;;;;5094571;28;20080;-82
2022/12/10 04:06:33;;;;;;;67.38;11.23;;;17.30;97.00;;;;;;5095997;28;20460;-82
2022/12/10 04:08:59;;;;;;;82.25;11.23;;;17.30;97.10;;;;;;5096009;28;20043;-82
2022/12/10 04:11:25;;;;;;;71.07;10.85;;;17.30;97.10;;;;;;5095596;28;20025;-82
2022/12/10 04:16:36;;;;;;;68.90;12.00;;;17.30;97.20;;;;;;5096714;28;20032;-82
2022/12/10 04:19:13;;;;;;;80.72;12.00;;;17.30;97.30;;;;;;5094943;28;20035;-81
2022/12/10 04:27:12;;;;;;;71.32;11.65;;;17.20;97.40;;;;;;5096410;28;20036;-81
2022/12/10 04:29:39;;;;;;;84.90;11.40;;;17.20;97.40;;;;;;5095924;28;20039;-81
2022/12/10 04:32:05;;;;;;;73.60;11.35;;;17.20;97.40;;;;;;5095727;28;20060;-81
2022/12/10 04:34:31;;;;;;;88.38;12.10;;;17.20;97.60;;;;;;5093887;28;20085;-81
2022/12/10 04:36:58;;;;;;;95.15;12.77;;;17.20;97.60;;;;;;5095095;28;20020;-81
2022/12/10 04:39:24;;;;;;;85.75;11.80;;;17.20;97.60;;;;;;5096891;28;20405;-81
2022/12/10 04:41:51;;;;;;;82.90;13.27;;;17.20;97.60;;;;;;5098557;28;20027;-81
2022/12/10 04:44:18;;;;;;;80.85;11.30;;;17.20;97.60;;;;;;5095669;28;20072;-81
2022/12/10 04:46:44;;;;;;;89.78;13.13;;;17.20;97.80;;;;;;5093780;28;20104;-82
2022/12/10 04:49:10;;;;;;;79.65;12.70;;;17.20;98.00;;;;;;5094964;28;20028;-82
2022/12/10 04:51:36;;;;;;;83.90;12.82;;;17.20;97.80;;;;;;5093350;28;20020;-81
2022/12/10 04:54:02;;;;;;;74.63;11.07;;;17.20;97.80;;;;;;5093594;28;20055;-82
2022/12/10 04:56:28;;;;;;;77.55;11.00;;;17.20;97.80;;;;;;5094147;28;20074;-82
2022/12/10 04:58:57;;;;;;;70.38;10.65;;;17.20;97.80;;;;;;5095224;28;20422;-82
2022/12/10 05:01:23;;;;;;;70.32;11.63;;;17.20;97.80;;;;;;5094671;28;20020;-81
2022/12/10 05:03:49;;;;;;;77.65;10.43;;;17.20;97.80;;;;;;5094439;28;20032;-81
2022/12/10 05:06:16;;;;;;;75.45;11.13;;;17.20;97.80;;;;;;5093238;28;20399;-81
2022/12/10 05:08:42;;;;;;;67.90;10.10;;;17.20;97.80;;;;;;5093369;28;20024;-81
2022/12/10 05:11:17;;;;;;;89.93;12.23;;;17.20;97.80;;;;;;5093020;28;20024;-81
2022/12/10 05:13:43;;;;;;;85.05;11.45;;;17.20;97.80;;;;;;5094188;28;20086;-82
2022/12/10 05:16:11;;;;;;;75.38;13.10;;;17.30;97.90;;;;;;5092719;28;20024;-82
2022/12/10 05:18:37;;;;;;;68.70;11.57;;;17.30;98.00;;;;;;5092851;28;20114;-82
2022/12/10 05:21:05;;;;;;;73.80;10.77;;;17.20;97.90;;;;;;5092838;28;20134;-81
2022/12/10 05:23:32;;;;;;;78.60;10.57;;;17.30;97.90;;;;;;5092879;28;20028;-82
2022/12/10 05:26:21;;;;;;;72.82;10.43;;;17.30;98.00;;;;;;5093663;28;20064;-81
2022/12/10 05:28:54;;;;;;;87.82;14.23;;;17.30;98.00;;;;;;5094029;28;20466;-82
2022/12/10 05:31:22;;;;;;;77.40;10.77;;;17.20;98.00;;;;;;5094372;28;20031;-81
2022/12/10 05:33:49;;;;;;;72.28;12.23;;;17.20;98.00;;;;;;5092419;28;20482;-81
2022/12/10 05:36:17;;;;;;;79.10;10.68;;;17.20;98.00;;;;;;5093771;28;20056;-81
2022/12/10 05:38:44;;;;;;;86.70;10.70;;;17.20;98.00;;;;;;5093527;28;20111;-81
2022/12/10 05:41:18;;;;;;;74.82;10.65;;;17.20;98.00;;;;;;5094563;28;20028;-81
2022/12/10 05:43:44;;;;;;;80.35;12.57;;;17.30;98.10;;;;;;5093312;28;20032;-82
2022/12/10 05:46:17;;;;;;;78.88;10.85;;;17.20;98.00;;;;;;5093490;28;20020;-81
2022/12/10 05:48:43;;;;;;;76.55;11.88;;;17.20;98.10;;;;;;5093464;28;20020;-82
2022/12/10 05:51:11;;;;;;;86.07;14.10;;;17.20;98.10;;;;;;5092254;28;20024;-82
2022/12/10 05:53:38;;;;;;;71.60;11.65;;;17.20;98.10;;;;;;5093415;28;20048;-83
2022/12/10 05:56:07;;;;;;;80.80;10.90;;;17.10;98.10;;;;;;5093763;28;20032;-81
2022/12/10 05:58:33;;;;;;;82.70;11.55;;;17.10;98.10;;;;;;5092268;28;20028;-81
2022/12/10 06:01:00;;;;;;;83.40;12.48;;;17.10;98.10;;;;;;5095406;28;20031;-80
2022/12/10 06:03:27;;;;;;;84.40;11.00;;;17.10;98.10;;;;;;5098313;28;20035;-80
2022/12/10 06:05:53;;;;;;;86.47;13.43;;;17.10;98.00;;;;;;5096298;28;20023;-81
2022/12/10 06:08:19;;;;;;;77.10;12.15;;;17.10;98.10;;;;;;5092370;28;20031;-80
2022/12/10 06:10:45;;;;;;;82.15;12.05;;;17.00;98.00;;;;;;5093395;28;20024;-81
2022/12/10 06:13:11;;;;;;;82.07;11.43;;;17.10;98.00;;;;;;5093263;28;20028;-81
2022/12/10 06:15:40;;;;;;;72.90;12.05;;;17.10;97.90;;;;;;5091853;28;20051;-81
2022/12/10 06:18:06;;;;;;;88.55;12.70;;;17.10;97.90;;;;;;5091872;28;20047;-82
2022/12/10 06:20:32;;;;;;;76.20;10.68;;;17.10;97.80;;;;;;5092908;28;20032;-82
2022/12/10 06:22:57;;;;;;;84.68;11.45;;;17.10;97.80;;;;;;5092952;28;20447;-81
2022/12/10 06:25:23;;;;;;;66.63;9.90;;;17.20;97.70;;;;;;5092831;28;20058;-79
2022/12/10 06:27:49;;;;;;;77.15;11.52;;;17.20;97.70;;;;;;5091927;28;20028;-81
2022/12/10 06:30:15;;;;;;;75.82;12.38;;;17.20;97.70;;;;;;5092113;28;20027;-83
2022/12/10 06:32:42;;;;;;;67.55;11.55;;;17.20;97.70;;;;;;5093769;28;20539;-81
2022/12/10 06:35:09;;;;;;;62.72;9.77;;;17.20;97.70;;;;;;5091782;28;20043;-81
2022/12/10 06:37:35;;;;;;;82.40;11.18;;;17.20;97.70;;;;;;5093356;28;20372;-81
2022/12/10 06:40:01;;;;;;;63.35;9.52;;;17.20;97.80;;;;;;5092551;28;20039;-81
2022/12/10 06:42:27;;;;;;;64.47;11.43;;;17.20;97.80;;;;;;5092856;28;20027;-83
2022/12/10 06:44:53;;;;;;;73.90;10.88;;;17.20;97.80;;;;;;5092785;28;20029;-82
2022/12/10 06:47:18;;;;;;;80.97;11.40;;;17.30;97.90;;;;;;5091657;28;20043;-80
2022/12/10 06:49:44;;;;;;;69.65;11.32;;;17.20;97.80;;;;;;5091507;28;20043;-82
2022/12/10 06:52:10;;;;;;;67.93;9.70;;;17.30;98.00;;;;;;5091375;28;20052;-81
2022/12/10 06:54:35;;;;;;;67.97;11.23;;;17.20;98.10;;;;;;5093257;28;20028;-80
2022/12/10 06:57:01;;;;;;;63.00;10.15;;;17.20;98.10;;;;;;5091524;28;20073;-80
2022/12/10 06:59:27;;;;;;;63.85;10.65;;;17.30;98.30;;;;;;5092831;28;20028;-80
2022/12/10 07:01:52;;;;;;;71.88;11.82;;;17.30;98.30;;;;;;5092534;28;20024;-79
2022/12/10 07:04:18;;;;;;;70.25;11.60;;;17.30;98.30;;;;;;5092383;28;20031;-80
2022/12/10 07:06:44;;;;;;;67.38;10.60;;;17.30;98.40;;;;;;5092447;28;20039;-81
2022/12/10 07:09:09;;;;;;;66.03;10.80;;;17.30;98.40;;;;;;5092685;28;20028;-81
2022/12/10 07:11:35;;;;;;;69.88;11.90;;;17.30;98.40;;;;;;5092547;28;20356;-81
2022/12/10 07:14:01;;;;;;;69.80;10.93;;;17.30;98.40;;;;;;5093603;28;20036;-82
2022/12/10 07:16:30;;;;;;;73.20;9.82;;;17.30;98.50;;;;;;5095816;28;20491;-83
2022/12/10 07:18:57;;;;;;;60.53;9.85;;;17.30;98.50;;;;;;5095416;28;20031;-80
2022/12/10 07:21:29;;;;;;;66.90;10.82;;;17.30;98.50;;;;;;5096932;28;20020;-78
2022/12/10 07:23:57;;;;;;;71.25;11.23;;;17.30;98.50;;;;;;5095637;28;20035;-75
2022/12/10 07:26:29;;;;;;;66.60;10.40;;;17.30;98.40;;;;;;5095135;28;20115;-79
2022/12/10 07:28:55;;;;;;;65.15;10.80;;;17.30;98.50;;;;;;5096701;28;20028;-78
2022/12/10 07:31:21;;;;;;;66.10;11.43;;;17.30;98.50;;;;;;5097604;28;20024;-78
2022/12/10 07:33:48;;;;;;;71.57;11.30;;;17.30;98.60;;;;;;5103550;28;20041;-82
2022/12/10 07:36:14;;;;;;;58.22;10.30;;;17.30;98.60;;;;;;5117272;28;20031;-84
2022/12/10 07:38:40;;;;;;;64.65;10.32;;;17.30;98.60;;;;;;5116519;28;20028;-80
2022/12/10 07:41:10;;;;;;;71.88;11.35;;;17.30;98.60;;;;;;5115156;28;20026;-80
2022/12/10 07:43:37;;;;;;;68.75;10.80;;;17.30;98.60;;;;;;5115340;28;20399;-80
2022/12/10 07:46:10;;;;;;;55.38;10.27;;;17.30;98.60;;;;;;5116984;28;20031;-78
2022/12/10 07:48:37;;;;;;;71.82;11.00;;;17.30;98.70;;;;;;5117148;28;20023;-80
2022/12/10 07:51:03;;;;;;;77.25;10.57;;;17.30;99.00;;;;;;5118142;27;20459;-79
2022/12/10 07:53:29;;;;;;;52.40;9.07;;;17.30;98.70;;;;;;5115268;28;20460;-79
2022/12/10 07:55:55;;;;;;;56.70;9.27;;;17.30;98.70;;;;;;5115016;28;20364;-80
2022/12/10 07:58:21;;;;;;;61.08;9.43;;;17.30;98.80;;;;;;5116430;28;20057;-80
2022/12/10 08:00:47;;;;;;;55.00;9.77;;;17.30;98.80;;;;;;5114977;28;20012;-80
2022/12/10 08:03:12;;;;;;;60.47;10.18;;;17.30;98.80;;;;;;5114778;28;20080;-81
2022/12/10 08:05:38;;;;;;;49.38;9.70;;;17.30;98.80;;;;;;5114950;28;20062;-79
2022/12/10 08:08:04;;;;;;;58.55;9.82;;;17.30;98.80;;;;;;5116065;28;20034;-76
2022/12/10 08:10:34;;;;;;;61.35;9.30;;;17.40;99.10;;;;;;5114923;28;20424;-81
2022/12/10 08:13:00;;;;;;;56.08;9.13;;;17.40;98.90;;;;;;5114368;28;20035;-79
2022/12/10 08:15:27;;;;;;;53.05;9.48;;;17.40;99.10;;;;;;5115205;28;20095;-81
2022/12/10 08:17:53;;;;;;;49.20;9.30;;;17.40;98.80;;;;;;5119352;28;20031;-79
2022/12/10 08:20:20;;;;;;;52.83;9.15;;;17.40;98.80;;;;;;5116242;28;20043;-85
2022/12/10 08:22:45;;;;;;;65.25;8.93;;;17.40;98.70;;;;;;5116386;28;20086;-83
2022/12/10 08:25:11;;;;;;;51.47;9.73;;;17.40;98.70;;;;;;5115936;28;20016;-82
2022/12/10 08:27:37;;;;;;;54.10;10.15;;;17.40;98.80;;;;;;5114708;28;20046;-84
2022/12/10 08:30:04;;;;;;;54.28;10.60;;;17.40;98.70;;;;;;5114638;28;20024;-86
2022/12/10 08:32:29;;;;;;;53.03;8.48;;;17.40;98.70;;;;;;5115664;28;20031;-84
2022/12/10 08:34:55;;;;;;;45.00;8.43;;;17.40;98.60;;;;;;5114227;28;20112;-87
2022/12/10 08:37:21;;;;;;;56.88;11.18;;;17.40;98.60;;;;;;5116087;28;20487;-84
2022/12/10 08:39:47;;;;;;;52.95;10.02;;;17.40;98.60;;;;;;5114248;28;20479;-81
2022/12/10 08:42:13;;;;;;;49.92;9.00;;;17.40;98.60;;;;;;5134105;27;20051;-82
2022/12/10 08:44:39;;;;;;;49.13;8.85;;;17.40;98.60;;;;;;5125332;28;20105;-84
2022/12/10 08:47:05;;;;;;;61.95;10.45;;;17.30;98.50;;;;;;5119407;28;20083;-83
2022/12/10 08:49:31;;;;;;;63.35;10.32;;;17.30;98.60;;;;;;5123260;28;20026;-81
2022/12/10 08:51:57;;;;;;;52.20;8.93;;;17.30;98.50;;;;;;5128200;28;20015;-81
2022/12/10 08:54:22;;;;;;;53.63;10.27;;;17.30;98.60;;;;;;5123342;28;20050;-82
2022/12/10 08:56:48;;;;;;;54.75;8.98;;;17.30;98.60;;;;;;5115451;28;20065;-80
2022/12/10 08:59:14;;;;;;;47.53;10.25;;;17.30;98.50;;;;;;5115239;28;20034;-87
2022/12/10 09:01:39;;;;;;;52.53;8.57;;;17.30;98.50;;;;;;5131346;27;20027;-83
2022/12/10 09:04:05;;;;;;;58.83;10.45;;;17.30;98.50;;;;;;5115259;28;20479;-82
2022/12/10 09:06:31;;;;;;;43.20;10.15;;;17.30;98.40;;;;;;5115038;28;20015;-84
2022/12/10 09:08:56;;;;;;;44.85;8.18;;;17.30;98.40;;;;;;5130308;27;20024;-83
2022/12/10 09:11:24;;;;;;;43.28;8.82;;;17.30;98.40;;;;;;5113762;28;20020;-83
2022/12/10 09:13:50;;;;;;;50.40;9.23;;;17.30;98.50;;;;;;5115219;28;20050;-83
2022/12/10 09:16:16;;;;;;;47.65;8.43;;;17.30;98.40;;;;;;5114721;28;20023;-80
2022/12/10 09:18:42;;;;;;;59.75;9.90;;;17.30;98.40;;;;;;5114742;28;20027;-83
2022/12/10 09:21:10;;;;;;;50.75;9.50;;;17.30;98.40;;;;;;5114069;28;20020;-79
2022/12/10 09:23:35;;;;;;;51.50;9.13;;;17.40;98.40;;;;;;5112773;28;20134;-80
2022/12/10 09:26:05;;;;;;;51.47;9.15;;;17.40;98.30;;;;;;5114185;28;20610;-87
2022/12/10 09:28:30;;;;;;;54.40;10.93;;;17.40;98.40;;;;;;5102040;28;20051;-82
2022/12/10 09:30:59;;;;;;;45.00;9.05;;;17.40;98.30;;;;;;5093942;28;20488;-82
2022/12/10 09:33:26;;;;;;;49.65;8.85;;;17.40;98.50;;;;;;5092288;28;20089;-82
2022/12/10 09:35:52;;;;;;;52.20;9.25;;;17.50;98.30;;;;;;5091971;28;20027;-82
2022/12/10 09:38:18;;;;;;;54.25;8.90;;;17.50;98.30;;;;;;5092531;28;20031;-83
2022/12/10 09:40:58;;;;;;;35.70;8.20;;;17.40;98.30;;;;;;5092054;28;20567;-82
2022/12/10 09:43:43;;;;;;;53.72;9.32;;;17.50;98.30;;;;;;5093369;28;20031;-81
2022/12/10 09:46:33;;;;;;;45.15;9.23;;;17.60;98.30;;;;;;5093060;28;20032;-81
2022/12/10 09:49:25;;;;;;;42.15;7.90;;;17.60;98.20;;;;;;5092753;28;20059;-81
2022/12/10 09:51:56;;;;;;;47.20;8.50;;;17.60;98.20;;;;;;5093019;28;20031;-81
2022/12/10 09:54:29;;;;;;;48.33;8.98;;;17.70;98.10;;;;;;5092581;28;20471;-82
2022/12/10 09:56:56;;;;;;;47.35;8.32;;;17.80;98.00;;;;;;5100727;28;20034;-81
2022/12/10 09:59:40;;;;;;;47.35;9.02;;;17.80;97.80;;;;;;5115453;28;20024;-80
2022/12/10 10:02:26;;;;;;;41.45;9.00;;;17.90;97.90;;;;;;5114178;28;20034;-81
2022/12/10 10:05:09;;;;;;;38.15;8.27;;;17.90;97.70;;;;;;5112351;28;20421;-81
2022/12/10 10:07:48;;;;;;;39.08;7.43;;;18.00;97.70;;;;;;5112119;28;20024;-81
2022/12/10 10:10:34;;;;;;;40.75;8.02;;;18.00;97.50;;;;;;5113191;28;20032;-81
2022/12/10 10:13:28;;;;;;;47.95;8.80;;;18.00;97.50;;;;;;5111573;28;20032;-82
2022/12/10 10:15:55;;;;;;;36.63;7.68;;;18.00;97.40;;;;;;5113158;28;20180;-81
2022/12/10 10:18:34;;;;;;;41.10;7.80;;;17.90;97.40;;;;;;5113270;28;20024;-81
2022/12/10 10:21:00;;;;;;;39.90;6.97;;;18.00;97.30;;;;;;5111355;28;20035;-81
2022/12/10 10:23:26;;;;;;;39.90;7.90;;;18.00;97.30;;;;;;5111917;28;20019;-81
2022/12/10 10:25:52;;;;;;;41.42;8.77;;;18.10;97.20;;;;;;5111240;28;20498;-81
2022/12/10 10:28:21;;;;;;;41.25;8.10;;;18.10;97.10;;;;;;5112865;28;20019;-80
2022/12/10 10:30:48;;;;;;;38.75;8.90;;;18.10;97.00;;;;;;5112864;28;20023;-82
2022/12/10 10:33:15;;;;;;;39.83;7.72;;;18.20;97.00;;;;;;5112314;28;20101;-81
2022/12/10 10:35:53;;;;;;;27.98;5.68;;;18.20;97.00;;;;;;5112385;28;20392;-80
2022/12/10 10:38:25;;;;;;;28.17;6.15;;;18.20;96.90;;;;;;5112576;28;20041;-81
2022/12/10 10:41:00;;;;;;;33.50;6.95;;;18.20;96.80;;;;;;5111079;28;20062;-81
2022/12/10 10:43:44;;;;;;;30.50;6.82;;;18.20;96.70;;;;;;5111103;28;20051;-82
2022/12/10 10:46:17;;;;;;;25.98;6.47;;;18.30;96.60;;;;;;5111579;28;20031;-81
2022/12/10 10:48:43;;;;;;;32.95;6.32;;;18.40;96.50;;;;;;5110764;28;20023;-80
2022/12/10 10:51:12;;;;;;;34.80;6.90;;;18.50;96.30;;;;;;5112665;28;20058;-81
2022/12/10 10:53:45;;;;;;;32.78;6.75;;;18.50;96.10;;;;;;5112139;28;20047;-80
2022/12/10 10:56:20;;;;;;;;;;;18.60;96.00;;;;;;5111476;28;20108;-79
2022/12/10 10:58:57;;;;;;;29.38;6.53;;;18.70;95.70;;;;;;5112944;28;19910;-82
2022/12/10 11:01:25;;;;;;;34.20;6.32;;;18.80;95.60;;;;;;5110637;28;20026;-82
2022/12/10 11:03:59;;;;;;;29.25;5.80;;;19.00;95.50;;;;;;5110743;28;20081;-81
2022/12/10 11:06:25;;;;;;;32.25;7.40;;;19.10;95.40;;;;;;5112104;28;20031;-80
2022/12/10 11:08:56;;;;;;;29.65;6.75;;;19.30;95.10;;;;;;5111991;28;20019;-81
2022/12/10 11:11:40;;;;;;;37.40;6.55;;;19.30;94.90;;;;;;5110433;28;20028;-82
2022/12/10 11:14:38;;;;;;;30.13;6.93;;;19.40;94.80;;;;;;5110253;28;20387;-82
2022/12/10 11:17:10;;;;;;;32.13;7.25;;;19.40;94.70;;;;;;5112417;28;20034;-82
2022/12/10 11:19:43;;;;;;;38.55;7.47;;;19.40;94.70;;;;;;5111734;28;20028;-81
2022/12/10 11:22:17;;;;;;;36.27;8.40;;;19.30;94.70;;;;;;5111897;28;20024;-82
2022/12/10 11:24:43;;;;;;;46.92;8.48;;;19.30;94.70;;;;;;5111894;28;20257;-82
2022/12/10 11:27:16;;;;;;;38.53;7.85;;;19.30;94.70;;;;;;5111596;28;20364;-82
2022/12/10 11:30:05;;;;;;;48.90;8.23;;;19.20;94.80;;;;;;5111994;28;20081;-81
2022/12/10 11:32:55;;;;;;;44.25;9.13;;;19.10;94.60;;;;;;5109948;28;20119;-81
2022/12/10 11:35:47;;;;;;;49.67;8.02;;;19.00;94.70;;;;;;5110223;28;20055;-82
2022/12/10 11:38:26;;;;;;;54.63;8.77;;;19.00;94.70;;;;;;5112306;28;20023;-80
2022/12/10 11:41:23;;;;;;;60.38;10.77;;;18.90;94.80;;;;;;5118055;28;20023;-82
2022/12/10 11:44:04;;;;;;;59.67;9.23;;;18.80;94.70;;;;;;5122470;28;20561;-81
2022/12/10 11:46:44;;;;;;;62.10;10.05;;;18.70;94.80;;;;;;5111421;28;20034;-79
2022/12/10 11:49:47;;;;;;;68.35;10.35;;;18.60;94.90;;;;;;5110788;28;20028;-81
2022/12/10 11:52:28;;;;;;;70.78;10.90;;;18.60;94.90;;;;;;5112446;28;20039;-81
2022/12/10 11:55:06;;;;;;;64.60;9.98;;;18.70;94.90;;;;;;5113007;28;20035;-81
2022/12/10 11:57:59;;;;;;;62.88;9.07;;;18.80;94.80;;;;;;5111745;28;20031;-81
2022/12/10 12:00:27;;;;;;;49.80;9.55;;;18.80;94.60;;;;;;5112672;28;20444;-82
2022/12/10 12:03:20;;;;;;;53.67;9.73;;;18.80;94.70;;;;;;5115048;28;20028;-81
2022/12/10 12:06:21;;;;;;;44.40;8.13;;;18.70;94.50;;;;;;5114663;28;20032;-82
2022/12/10 12:09:12;;;;;;;59.88;9.00;;;18.60;94.50;;;;;;5094338;28;20126;-80
2022/12/10 12:11:56;;;;;;;61.15;9.45;;;18.50;94.60;;;;;;5115174;28;20012;-80
2022/12/10 12:14:24;;;;;;;;;;;18.50;94.70;;;;;;5115633;28;20035;-83
2022/12/10 12:17:16;;;;;;;50.70;9.13;;;18.50;94.60;;;;;;5115107;27;19914;-82
2022/12/10 12:19:52;;;;;;;62.03;10.90;;;18.50;94.60;;;;;;5113140;28;20070;-83
2022/12/10 12:22:33;;;;;;;56.35;9.80;;;18.70;94.60;;;;;;5113489;28;20159;-82
2022/12/10 12:25:10;;;;;;;69.28;10.52;;;18.70;94.40;;;;;;5114820;28;20034;-81
2022/12/10 12:27:45;;;;;;;64.28;10.15;;;18.70;94.60;;;;;;5114815;27;20031;-82
2022/12/10 12:30:19;;;;;;;60.83;10.25;;;18.60;94.70;;;;;;5114364;28;20016;-82
2022/12/10 12:33:15;;;;;;;56.47;11.80;;;18.50;94.70;;;;;;5113240;28;20039;-82
2022/12/10 12:35:49;;;;;;;38.45;6.88;;;18.50;94.70;;;;;;5087488;28;20041;-83
2022/12/10 12:38:35;;;;;;;29.00;6.22;;;18.40;94.70;;;;;;5115007;27;20080;-83
2022/12/10 12:41:30;;;;;;;29.40;5.63;;;18.10;94.80;;;;;;5116301;28;20016;-81
2022/12/10 12:44:02;;;;;;;17.38;3.17;;;17.70;95.20;;;;;;5092906;28;20496;-83
2022/12/10 12:46:42;;;;;;;9.75;2.65;;;17.40;95.10;;;;;;5118332;28;20039;-83
2022/12/10 12:49:26;;;;;;;32.42;16.55;;;17.20;95.40;;;;;;5114958;28;20030;-82
2022/12/10 12:51:56;;;;;;;12.85;4.35;;;17.00;95.60;;;;;;5114631;28;20115;-83
2022/12/10 12:54:22;;;;;;;11.38;3.03;;;17.00;95.70;;;;;;5115082;28;20467;-84
2022/12/10 12:56:58;;;;;;;17.45;5.70;;;17.00;95.80;;;;;;5113963;28;20054;-83
2022/12/10 12:59:42;;;;;;;19.08;4.88;;;17.10;95.80;;;;;;5112842;28;20421;-83